Time;durP1;ratioP1;P1;durP2;ratioP2;P2;SDS_P1;SDS_P2;PMS_P1;PMS_P2;Temp;Humidity;BMP_temperature;BMP_pressure;BME280_temperature;BME280_humidity;BME280_pressure;Samples;Min_cycle;Max_cycle;Signal;HPM_P1;HPM_P2
2021/09/14 00:00:19;;;;;;;1.20;1.10;;;;;;;16.68;61.61;98725.03;5055123;28;20033;-63
2021/09/14 00:02:45;;;;;;;2.60;1.13;;;;;;;16.62;61.19;98733.88;5066142;28;20083;-63
2021/09/14 00:05:10;;;;;;;0.95;0.93;;;;;;;16.46;61.28;98730.38;5061012;28;20025;-65
2021/09/14 00:07:36;;;;;;;1.10;1.00;;;;;;;16.41;61.56;98746.31;5059746;28;20433;-64
2021/09/14 00:10:01;;;;;;;3.92;1.17;;;;;;;16.31;61.46;98748.47;5067341;28;20028;-63
2021/09/14 00:12:27;;;;;;;2.90;1.15;;;;;;;16.19;62.01;98743.56;5054679;28;20074;-63
2021/09/14 00:14:52;;;;;;;2.00;1.10;;;;;;;16.08;61.78;98738.59;5065373;28;20094;-64
2021/09/14 00:17:18;;;;;;;2.55;1.17;;;;;;;15.93;61.91;98752.09;5061345;28;20033;-64
2021/09/14 00:19:43;;;;;;;1.20;1.10;;;;;;;15.81;61.75;98753.56;5057582;28;20420;-62
2021/09/14 00:22:09;;;;;;;1.40;1.15;;;;;;;15.65;62.11;98756.22;5067688;28;20025;-63
2021/09/14 00:24:34;;;;;;;1.15;0.95;;;;;;;15.53;62.00;98762.22;5055503;28;20024;-64
2021/09/14 00:27:05;;;;;;;1.67;1.33;;;;;;;15.34;62.38;98767.94;5062878;28;20099;-63
2021/09/14 00:29:31;;;;;;;1.65;1.00;;;;;;;15.26;61.76;98776.13;5062759;28;20465;-63
2021/09/14 00:31:56;;;;;;;1.67;1.10;;;;;;;15.15;61.79;98782.75;5055728;28;20468;-63
2021/09/14 00:34:22;;;;;;;4.80;1.15;;;;;;;15.16;61.54;98783.59;5067190;28;20033;-64
2021/09/14 00:36:47;;;;;;;2.60;0.75;;;;;;;15.17;61.87;98794.22;5056414;28;20491;-64
2021/09/14 00:39:13;;;;;;;4.00;1.10;;;;;;;15.13;62.20;98787.50;5061350;28;20074;-64
2021/09/14 00:41:39;;;;;;;1.00;0.90;;;;;;;15.11;62.21;98800.31;5055911;28;20460;-63
2021/09/14 00:44:04;;;;;;;1.00;0.90;;;;;;;15.03;62.61;98803.06;5067104;28;20439;-62
2021/09/14 00:46:30;;;;;;;2.20;0.95;;;;;;;14.94;62.93;98804.94;5054073;28;20028;-63
2021/09/14 00:48:56;;;;;;;1.95;0.85;;;;;;;14.89;63.38;98818.97;5064060;28;20124;-63
2021/09/14 00:51:21;;;;;;;3.35;0.98;;;;;;;14.92;63.03;98813.22;5061201;28;20100;-63
2021/09/14 00:53:48;;;;;;;1.08;0.82;;;;;;;14.93;61.70;98800.59;5056689;28;20021;-64
2021/09/14 00:56:17;;;;;;;2.40;0.85;;;;;;;14.99;59.45;98821.47;5067425;28;20125;-63
2021/09/14 00:58:43;;;;;;;2.03;0.90;;;;;;;14.97;57.94;98830.72;5055881;28;20028;-64
2021/09/14 01:01:09;;;;;;;0.80;0.80;;;;;;;14.89;57.23;98826.22;5061971;28;20376;-64
2021/09/14 01:03:35;;;;;;;2.58;0.50;;;;;;;14.69;56.52;98833.88;5062898;28;20036;-64
2021/09/14 01:06:05;;;;;;;3.72;0.70;;;;;;;14.66;56.82;98851.22;5054987;28;20032;-64
2021/09/14 01:08:31;;;;;;;1.60;0.77;;;;;;;14.49;56.85;98856.69;5069031;28;20857;-63
2021/09/14 01:10:58;;;;;;;1.00;0.73;;;;;;;14.38;56.84;98865.09;5063468;28;20028;-63
2021/09/14 01:13:23;;;;;;;3.58;0.80;;;;;;;14.25;56.81;98854.03;5061308;28;20503;-63
2021/09/14 01:15:49;;;;;;;3.25;0.70;;;;;;;14.23;56.10;98864.13;5055859;28;20085;-63
2021/09/14 01:18:14;;;;;;;1.63;0.90;;;;;;;14.21;55.87;98859.75;5062993;28;20037;-64
2021/09/14 01:20:40;;;;;;;2.38;0.80;;;;;;;14.18;55.85;98862.78;5066690;28;20032;-64
2021/09/14 01:23:05;;;;;;;1.70;0.70;;;;;;;14.19;55.38;98877.09;5058876;28;20035;-63
2021/09/14 01:25:31;;;;;;;2.25;0.70;;;;;;;14.10;55.46;98865.50;5058716;28;20060;-62
2021/09/14 01:28:04;;;;;;;4.68;0.88;;;;;;;14.19;56.14;98874.41;5065750;28;20036;-63
2021/09/14 01:30:31;;;;;;;0.82;0.70;;;;;;;14.02;55.98;98873.59;5054483;28;20032;-63
2021/09/14 01:32:57;;;;;;;3.20;0.68;;;;;;;13.90;56.05;98873.94;5063548;28;20029;-64
2021/09/14 01:35:29;;;;;;;3.15;0.80;;;;;;;13.83;56.87;98869.38;5059636;28;20129;-63
2021/09/14 01:37:55;;;;;;;1.08;0.77;;;;;;;13.57;57.17;98859.63;5055520;28;20044;-62
2021/09/14 01:40:21;;;;;;;2.75;0.75;;;;;;;13.51;57.82;98868.38;5067441;28;20033;-63
2021/09/14 01:42:47;;;;;;;5.00;0.98;;;;;;;13.45;57.99;98875.25;5056424;28;20477;-64
2021/09/14 01:45:14;;;;;;;1.00;0.60;;;;;;;13.13;58.13;98839.22;5059569;28;21153;-63
2021/09/14 01:47:40;;;;;;;0.88;0.80;;;;;;;13.24;59.17;98868.44;5063371;28;20025;-62
2021/09/14 01:50:08;;;;;;;2.25;0.90;;;;;;;13.14;59.45;98873.16;5057664;28;20036;-63
2021/09/14 01:52:34;;;;;;;1.85;0.70;;;;;;;13.04;60.64;98874.13;5042010;28;20028;-63
2021/09/14 01:55:01;;;;;;;0.77;0.65;;;;;;;13.00;61.08;98882.69;5067150;28;20380;-63
2021/09/14 01:57:31;;;;;;;1.00;0.90;;;;;;;12.83;61.81;98871.03;5065198;28;20032;-62
2021/09/14 01:59:58;;;;;;;1.15;0.80;;;;;;;12.82;61.75;98894.34;5059372;28;20029;-62
2021/09/14 02:24:04;;;;;;;1.17;0.70;;;;;;;12.23;61.10;98888.84;5057829;28;20025;-64
2021/09/14 02:58:39;;;;;;;2.25;0.80;;;;;;;12.44;57.15;98902.72;5056243;28;20039;-62
2021/09/14 03:01:11;;;;;;;1.00;0.90;;;;;;;12.38;57.38;98900.69;5064126;28;20021;-62
2021/09/14 03:03:40;;;;;;;4.28;0.70;;;;;;;12.37;56.70;98903.50;5064296;28;20025;-62
2021/09/14 03:06:06;;;;;;;3.90;0.70;;;;;;;12.31;57.23;98899.66;5056267;28;20025;-63
2021/09/14 03:08:33;;;;;;;2.25;0.90;;;;;;;12.31;57.59;98905.00;5041133;28;20047;-61
2021/09/14 03:11:04;;;;;;;1.77;0.90;;;;;;;12.38;56.82;98913.25;5065854;28;20479;-63
2021/09/14 03:13:30;;;;;;;2.30;1.00;;;;;;;12.29;56.98;98917.72;5063824;28;20464;-62
2021/09/14 03:15:56;;;;;;;1.83;0.80;;;;;;;12.24;56.83;98920.03;5058131;28;20029;-62
2021/09/14 03:18:21;;;;;;;2.28;1.10;;;;;;;12.26;56.74;98918.03;5069717;28;20408;-62
2021/09/14 03:20:47;;;;;;;1.00;0.65;;;;;;;12.32;56.47;98926.31;5058439;28;20115;-64
2021/09/14 03:23:12;;;;;;;4.63;0.90;;;;;;;12.32;56.39;98928.16;5063350;28;20037;-62
2021/09/14 03:25:38;;;;;;;3.20;0.82;;;;;;;12.35;56.46;98934.03;5065541;28;20533;-62
2021/09/14 03:28:03;;;;;;;3.88;0.60;;;;;;;12.36;56.27;98921.47;5056647;28;20032;-63
2021/09/14 03:30:29;;;;;;;3.65;0.95;;;;;;;12.47;55.73;98931.94;5067342;28;20020;-62
2021/09/14 03:32:55;;;;;;;1.85;0.75;;;;;;;12.52;55.57;98923.41;5058659;28;20488;-62
2021/09/14 03:35:20;;;;;;;0.93;0.73;;;;;;;12.63;55.58;98928.50;5062435;28;20021;-63
2021/09/14 03:37:46;;;;;;;1.23;0.63;;;;;;;12.71;54.60;98938.44;5066262;28;20033;-62
2021/09/14 03:40:11;;;;;;;6.45;0.60;;;;;;;12.53;54.55;98909.00;5055340;28;20419;-61
2021/09/14 03:42:37;;;;;;;1.55;0.70;;;;;;;12.76;54.40;98946.88;5068136;28;20021;-62
2021/09/14 03:45:03;;;;;;;3.35;1.00;;;;;;;12.78;54.56;98942.22;5060356;28;20047;-63
2021/09/14 03:47:29;;;;;;;2.35;0.75;;;;;;;13.06;53.68;98941.13;5061004;28;20427;-63
2021/09/14 03:49:54;;;;;;;1.25;0.68;;;;;;;13.65;51.77;98940.34;5067077;28;20033;-63
2021/09/14 03:52:20;;;;;;;0.63;0.60;;;;;;;14.23;50.54;98955.66;5055291;28;20040;-62
2021/09/14 03:54:45;;;;;;;2.08;0.57;;;;;;;14.30;49.60;98918.97;5066833;28;20563;-61
2021/09/14 03:57:11;;;;;;;2.70;0.77;;;;;;;14.38;49.56;98950.44;5061613;28;20031;-62
2021/09/14 03:59:40;;;;;;;7.97;0.70;;;;;;;14.10;50.24;98948.09;5059482;28;20087;-63
2021/09/14 04:02:12;;;;;;;1.55;0.63;;;;;;;13.92;50.51;98949.94;5068198;28;20051;-62
2021/09/14 04:07:24;;;;;;;3.70;0.65;;;;;;;13.67;50.69;98959.84;5063124;28;20021;-63
2021/09/14 04:09:50;;;;;;;1.38;0.80;;;;;;;13.59;51.50;98963.34;5065678;28;20526;-62
2021/09/14 04:12:16;;;;;;;2.75;0.60;;;;;;;13.51;51.32;98966.03;5054271;28;20036;-63
2021/09/14 04:14:41;;;;;;;1.92;0.80;;;;;;;13.46;51.66;98965.66;5067173;28;20044;-61
2021/09/14 04:17:07;;;;;;;4.38;0.70;;;;;;;13.42;51.52;98972.34;5060389;28;20105;-63
2021/09/14 04:19:32;;;;;;;3.08;0.85;;;;;;;13.44;52.10;98964.97;5059255;28;20041;-63
2021/09/14 04:21:58;;;;;;;1.15;0.70;;;;;;;13.35;51.87;98940.75;5066508;28;20384;-62
2021/09/14 04:24:23;;;;;;;4.28;0.63;;;;;;;13.63;52.06;98974.63;5054395;28;20037;-63
2021/09/14 04:26:49;;;;;;;2.15;0.90;;;;;;;13.80;51.68;98956.66;5065388;28;20087;-63
2021/09/14 04:29:14;;;;;;;2.08;0.90;;;;;;;13.86;51.74;98961.38;5060015;28;20025;-61
2021/09/14 04:31:40;;;;;;;2.47;0.73;;;;;;;14.02;51.16;98955.16;5058121;28;20029;-63
2021/09/14 04:34:05;;;;;;;4.72;0.60;;;;;;;14.27;50.68;98967.78;5067202;28;20037;-63
2021/09/14 04:36:31;;;;;;;1.92;1.00;;;;;;;14.43;49.87;98975.00;5054367;28;20063;-62
2021/09/14 04:38:56;;;;;;;1.33;0.82;;;;;;;14.49;49.98;98964.41;5064228;28;20709;-64
2021/09/14 04:41:22;;;;;;;3.25;0.80;;;;;;;14.58;49.96;98978.66;5061737;28;20031;-64
2021/09/14 04:43:47;;;;;;;2.60;0.85;;;;;;;14.66;49.59;98969.75;5057066;28;20112;-63
2021/09/14 04:46:13;;;;;;;3.90;0.80;;;;;;;14.68;49.26;98975.78;5067494;28;20033;-65
2021/09/14 04:48:38;;;;;;;2.00;1.05;;;;;;;14.73;49.39;98970.78;5055675;28;20460;-64
2021/09/14 04:51:04;;;;;;;4.13;1.00;;;;;;;14.80;49.58;98979.00;5063133;28;20472;-65
2021/09/14 04:53:29;;;;;;;1.58;0.75;;;;;;;14.82;49.14;98963.50;5062153;28;20036;-64
2021/09/14 04:55:55;;;;;;;4.25;1.00;;;;;;;15.00;48.84;98970.53;5056415;28;20515;-64
2021/09/14 04:58:20;;;;;;;3.35;0.85;;;;;;;15.25;48.09;98971.28;5067091;28;20468;-62
2021/09/14 05:00:46;;;;;;;5.82;0.90;;;;;;;15.59;47.05;98975.47;5056160;28;20483;-63
2021/09/14 05:03:12;;;;;;;2.42;0.95;;;;;;;15.87;46.27;98939.88;5061943;28;20037;-63
2021/09/14 05:05:37;;;;;;;4.97;0.90;;;;;;;16.55;44.63;98947.28;5062051;28;20360;-64
2021/09/14 05:08:03;;;;;;;4.13;1.02;;;;;;;17.23;43.39;98989.63;5053938;28;20086;-64
2021/09/14 05:10:29;;;;;;;6.28;0.80;;;;;;;17.64;42.51;98983.69;5066992;28;20033;-63
2021/09/14 05:12:54;;;;;;;3.53;1.10;;;;;;;17.85;41.72;98979.34;5057211;28;20051;-62
2021/09/14 05:15:20;;;;;;;3.22;1.02;;;;;;;17.98;41.50;98977.78;5060099;28;20401;-62
2021/09/14 05:17:46;;;;;;;7.00;1.00;;;;;;;18.29;40.50;98973.91;5064315;28;20040;-63
2021/09/14 05:20:13;;;;;;;1.35;0.98;;;;;;;18.55;40.37;98977.88;5053808;28;20497;-62
2021/09/14 05:22:40;;;;;;;4.53;1.15;;;;;;;20.06;37.44;98979.03;5066505;28;20021;-63
2021/09/14 05:25:06;;;;;;;3.95;0.90;;;;;;;21.26;34.79;98971.00;5056762;28;20040;-63
2021/09/14 05:27:32;;;;;;;2.35;1.00;;;;;;;22.51;32.38;98971.56;5058369;28;20507;-63
2021/09/14 05:29:57;;;;;;;4.22;1.02;;;;;;;24.20;29.93;98969.56;5065964;28;20396;-64
2021/09/14 05:32:23;;;;;;;2.45;0.85;;;;;;;24.85;28.60;98972.53;5054131;28;20033;-63
2021/09/14 05:34:50;;;;;;;4.82;1.05;;;;;;;24.17;29.52;98964.56;5064499;28;20025;-63
2021/09/14 05:37:18;;;;;;;2.83;0.90;;;;;;;23.32;30.66;98972.66;5059545;28;20024;-64
2021/09/14 05:39:43;;;;;;;2.80;0.95;;;;;;;22.39;32.40;98970.56;5056968;28;20366;-64
2021/09/14 05:42:09;;;;;;;2.20;0.90;;;;;;;21.73;33.82;98975.44;5067707;28;20081;-65
2021/09/14 05:44:35;;;;;;;3.47;1.15;;;;;;;21.03;35.17;98974.22;5054532;28;20036;-64
2021/09/14 05:47:02;;;;;;;2.90;0.95;;;;;;;20.53;36.73;98974.69;5063126;28;20527;-64
2021/09/14 05:49:28;;;;;;;8.82;1.08;;;;;;;20.20;37.08;98976.34;5061598;28;20040;-63
2021/09/14 05:51:54;;;;;;;2.58;0.88;;;;;;;19.93;37.23;98947.25;5056002;28;20033;-65
2021/09/14 05:54:19;;;;;;;4.13;0.80;;;;;;;20.10;37.62;98984.06;5066681;28;20024;-64
2021/09/14 05:56:45;;;;;;;2.28;1.10;;;;;;;20.15;37.59;98987.84;5055499;28;20069;-64
2021/09/14 05:59:10;;;;;;;5.03;1.30;;;;;;;20.18;37.49;98975.72;5061622;28;20049;-63
2021/09/14 06:01:35;;;;;;;3.70;0.90;;;;;;;20.90;36.61;98973.22;5063156;28;20028;-65
2021/09/14 06:04:01;;;;;;;4.50;1.10;;;;;;;21.40;35.32;98979.97;5040827;28;20033;-65
2021/09/14 06:06:26;;;;;;;3.78;0.98;;;;;;;21.19;35.79;98978.34;5066208;28;20484;-65
2021/09/14 06:08:52;;;;;;;4.13;1.15;;;;;;;20.66;36.69;98971.94;5056642;28;20025;-65
2021/09/14 06:11:18;;;;;;;1.55;0.80;;;;;;;20.06;37.86;98989.09;5060347;28;20033;-66
2021/09/14 06:13:44;;;;;;;3.35;1.05;;;;;;;19.35;39.28;98997.41;5045505;28;20064;-64
2021/09/14 06:16:09;;;;;;;8.45;1.20;;;;;;;18.69;40.73;98990.50;5063912;28;20032;-65
2021/09/14 06:18:35;;;;;;;1.85;1.23;;;;;;;18.39;41.71;98993.41;5054036;28;20038;-63
2021/09/14 06:21:00;;;;;;;2.40;1.00;;;;;;;18.69;40.94;98997.78;5062689;28;20484;-65
2021/09/14 06:23:26;;;;;;;8.25;1.20;;;;;;;18.51;41.07;98991.81;5060768;28;20028;-63
2021/09/14 06:25:51;;;;;;;4.50;0.73;;;;;;;18.24;41.38;98990.78;5055154;28;20033;-64
2021/09/14 06:28:17;;;;;;;5.15;0.80;;;;;;;17.70;42.43;98935.22;5066311;28;20081;-64
2021/09/14 06:30:42;;;;;;;3.85;0.80;;;;;;;17.96;42.30;98991.50;5053643;28;20025;-63
2021/09/14 06:33:08;;;;;;;4.28;0.70;;;;;;;18.78;39.96;98993.91;5061390;28;20104;-63
2021/09/14 06:35:35;;;;;;;3.53;0.70;;;;;;;19.54;38.18;98991.41;5062528;28;20397;-64
2021/09/14 06:38:01;;;;;;;5.22;1.00;;;;;;;21.10;35.75;98980.50;5057570;28;20025;-63
2021/09/14 06:40:26;;;;;;;8.23;1.10;;;;;;;23.90;29.75;98974.00;5069461;28;20040;-63
2021/09/14 06:42:52;;;;;;;2.58;0.80;;;;;;;26.31;26.09;98968.84;5059750;28;20021;-69
2021/09/14 06:45:18;;;;;;;1.23;0.80;;;;;;;27.86;23.85;98964.63;5063172;28;20024;-63
2021/09/14 06:47:43;;;;;;;2.63;0.80;;;;;;;27.30;24.13;98973.84;5065161;28;20125;-63
2021/09/14 06:50:09;;;;;;;4.00;1.02;;;;;;;26.12;26.27;98968.19;5057089;28;20512;-65
2021/09/14 06:52:34;;;;;;;8.38;0.90;;;;;;;24.70;27.56;98967.47;5069508;28;20024;-63
2021/09/14 06:55:00;;;;;;;2.65;0.85;;;;;;;23.55;28.69;98985.59;5060082;28;20074;-63
2021/09/14 06:57:26;;;;;;;2.13;0.77;;;;;;;22.55;29.84;98955.59;5061750;28;20035;-64
2021/09/14 06:59:51;;;;;;;5.03;0.80;;;;;;;22.03;31.05;98967.47;5067838;28;20107;-63
2021/09/14 07:02:17;;;;;;;2.25;0.98;;;;;;;21.62;31.73;98980.47;5056371;28;20029;-62
2021/09/14 07:04:42;;;;;;;1.67;0.88;;;;;;;21.08;32.95;98993.44;5066211;28;20047;-63
2021/09/14 07:07:08;;;;;;;3.22;0.80;;;;;;;20.97;31.98;98988.69;5062000;28;20478;-63
2021/09/14 07:09:33;;;;;;;1.52;0.60;;;;;;;21.16;31.37;98984.22;5071446;28;20486;-63
2021/09/14 07:11:59;;;;;;;3.53;0.77;;;;;;;21.24;31.58;98984.00;5056743;28;20063;-64
2021/09/14 07:14:24;;;;;;;3.15;0.70;;;;;;;21.52;31.29;98980.13;5068971;28;20043;-63
2021/09/14 07:16:50;;;;;;;0.85;0.70;;;;;;;22.12;30.07;98989.88;5058764;28;20051;-63
2021/09/14 07:19:15;;;;;;;3.30;0.77;;;;;;;22.16;29.46;98991.09;5062975;28;20033;-63
2021/09/14 07:21:41;;;;;;;3.00;0.77;;;;;;;21.58;30.76;98990.16;5065497;28;20025;-61
2021/09/14 07:24:06;;;;;;;2.20;0.68;;;;;;;21.31;31.40;98992.13;5055926;28;20378;-63
2021/09/14 07:26:32;;;;;;;2.80;0.80;;;;;;;20.95;32.25;98999.75;5069317;28;20041;-63
2021/09/14 07:28:57;;;;;;;4.38;0.82;;;;;;;20.86;31.56;99003.75;5059295;28;20827;-63
2021/09/14 07:31:23;;;;;;;4.68;0.93;;;;;;;21.19;30.58;99009.13;5060065;28;20017;-64
2021/09/14 07:33:48;;;;;;;2.88;0.70;;;;;;;21.56;29.69;99007.75;5066242;28;20062;-64
2021/09/14 07:36:14;;;;;;;5.88;0.98;;;;;;;22.13;29.06;99012.53;5055528;28;20071;-64
2021/09/14 07:38:42;;;;;;;5.03;0.70;;;;;;;23.42;27.57;99008.44;5069445;28;20423;-61
2021/09/14 07:41:08;;;;;;;3.70;1.00;;;;;;;25.48;24.29;98994.69;5073203;28;20029;-59
2021/09/14 07:43:35;;;;;;;4.63;0.70;;;;;;;26.30;22.50;98994.63;5071900;28;20029;-60
2021/09/14 07:46:00;;;;;;;1.38;0.90;;;;;;;25.96;23.02;98991.78;5073309;28;20062;-59
2021/09/14 07:48:26;;;;;;;2.03;0.70;;;;;;;25.61;22.55;98994.44;5072983;28;20040;-60
2021/09/14 07:50:51;;;;;;;6.03;0.65;;;;;;;25.15;23.07;99002.47;5072330;28;20032;-58
2021/09/14 07:53:17;;;;;;;5.25;1.00;;;;;;;24.30;23.65;98988.13;5072640;28;20037;-61
2021/09/14 07:55:43;;;;;;;2.03;0.70;;;;;;;24.00;24.66;99003.50;5072679;28;20070;-60
2021/09/14 07:58:08;;;;;;;3.78;0.85;;;;;;;23.57;25.12;99004.50;5072995;28;20052;-60
2021/09/14 08:00:34;;;;;;;1.45;0.77;;;;;;;22.84;26.22;99004.22;5072086;28;20494;-61
2021/09/14 08:03:00;;;;;;;4.35;1.00;;;;;;;22.06;27.57;99007.94;5071938;28;20024;-58
2021/09/14 08:05:26;;;;;;;3.30;0.90;;;;;;;21.17;29.68;99010.38;5072589;28;20539;-59
2021/09/14 08:07:52;;;;;;;4.03;1.00;;;;;;;20.42;30.59;99012.31;5072235;28;20514;-57
2021/09/14 08:10:18;;;;;;;3.13;0.90;;;;;;;19.92;30.82;99027.09;5054440;28;20033;-61
2021/09/14 08:12:43;;;;;;;4.63;0.93;;;;;;;19.56;31.97;99036.34;5051958;28;20118;-62
2021/09/14 08:15:10;;;;;;;4.55;0.77;;;;;;;19.45;31.76;99029.59;5052133;28;20033;-58
2021/09/14 08:17:35;;;;;;;6.70;0.70;;;;;;;19.46;29.73;99028.56;5051807;28;20052;-61
2021/09/14 08:20:03;;;;;;;2.10;0.52;;;;;;;19.54;29.61;99015.84;5052007;28;20024;-62
2021/09/14 08:22:28;;;;;;;2.90;0.88;;;;;;;19.68;27.42;99024.88;5051983;28;20037;-58
2021/09/14 08:24:54;;;;;;;3.00;0.77;;;;;;;19.65;27.94;99024.25;5051858;28;20032;-60
2021/09/14 08:27:19;;;;;;;1.95;0.70;;;;;;;19.40;28.52;99025.81;5051265;28;20037;-61
2021/09/14 08:29:44;;;;;;;3.20;0.50;;;;;;;19.23;29.05;99015.28;5051731;28;20116;-61
2021/09/14 08:32:10;;;;;;;4.00;0.60;;;;;;;19.16;29.17;99012.53;5050724;28;20109;-61
2021/09/14 08:34:35;;;;;;;4.97;0.60;;;;;;;19.06;30.22;99012.91;5040650;28;20029;-60
2021/09/14 08:37:01;;;;;;;5.00;0.82;;;;;;;18.94;30.28;99014.47;5031369;28;20025;-61
2021/09/14 08:39:27;;;;;;;4.65;1.20;;;;;;;18.78;29.87;99004.75;5031751;28;20057;-61
2021/09/14 08:41:52;;;;;;;5.97;1.20;;;;;;;18.62;29.96;99001.31;5031771;28;20121;-60
2021/09/14 08:44:18;;;;;;;3.50;0.68;;;;;;;18.54;29.55;99030.41;5031824;28;20490;-61
2021/09/14 08:46:44;;;;;;;1.88;0.65;;;;;;;18.37;29.70;99014.44;5032293;28;20029;-60
2021/09/14 08:49:11;;;;;;;2.92;0.90;;;;;;;18.27;30.56;99024.75;5030078;28;20044;-59
2021/09/14 08:51:37;;;;;;;4.85;0.70;;;;;;;17.89;31.24;99018.53;5041321;28;20033;-61
2021/09/14 08:54:02;;;;;;;5.15;0.65;;;;;;;17.51;32.18;99021.41;5050449;28;20440;-61
2021/09/14 08:56:28;;;;;;;3.33;0.80;;;;;;;17.34;32.72;99026.19;5051593;28;20036;-60
2021/09/14 08:59:02;;;;;;;3.63;0.80;;;;;;;17.27;32.95;99027.97;5050285;28;20094;-62
2021/09/14 09:01:28;;;;;;;2.63;0.50;;;;;;;17.08;32.45;99043.72;5051469;28;20357;-60
2021/09/14 09:03:58;;;;;;;0.70;0.50;;;;;;;17.11;32.50;99031.69;5051396;28;20128;-62
2021/09/14 09:06:35;;;;;;;2.53;0.70;;;;;;;17.01;32.68;99040.91;5051107;28;20032;-61
2021/09/14 09:09:17;;;;;;;2.42;0.50;;;;;;;16.98;33.04;99037.72;5050788;28;20056;-61
2021/09/14 09:11:54;;;;;;;2.78;0.70;;;;;;;16.97;33.11;99050.41;5040801;28;20034;-61
2021/09/14 09:14:19;;;;;;;3.53;0.70;;;;;;;16.88;33.51;99038.81;5030757;28;20068;-61
2021/09/14 09:16:45;;;;;;;5.07;0.73;;;;;;;16.90;33.19;99033.25;5031244;28;20041;-59
2021/09/14 09:19:10;;;;;;;4.63;0.90;;;;;;;16.92;32.95;99028.50;5029507;28;20029;-61
2021/09/14 09:21:39;;;;;;;3.83;0.90;;;;;;;17.00;33.05;99028.44;5031068;28;20065;-61
2021/09/14 09:24:06;;;;;;;3.40;0.75;;;;;;;17.07;32.55;99010.44;5030735;28;20037;-61
2021/09/14 09:26:37;;;;;;;1.15;0.70;;;;;;;17.16;32.43;99023.88;5030549;28;20056;-61
2021/09/14 09:29:05;;;;;;;3.90;0.60;;;;;;;17.15;32.15;99023.03;5030754;28;20076;-61
2021/09/14 09:31:36;;;;;;;5.47;0.63;;;;;;;17.16;32.57;99037.41;5031358;28;20056;-65
2021/09/14 09:34:07;;;;;;;5.78;0.70;;;;;;;17.06;32.61;99030.38;5031096;28;20025;-61
2021/09/14 09:36:37;;;;;;;1.77;0.63;;;;;;;16.94;32.78;99029.16;5030665;28;20033;-61
2021/09/14 09:39:05;;;;;;;1.60;0.88;;;;;;;16.38;32.96;98935.75;5030739;28;20041;-63
2021/09/14 09:41:35;;;;;;;1.23;0.57;;;;;;;16.85;32.68;99022.97;5031294;28;20477;-60
2021/09/14 09:44:09;;;;;;;4.20;0.77;;;;;;;17.08;33.03;99022.91;5031158;28;20029;-61
2021/09/14 09:46:35;;;;;;;1.73;0.60;;;;;;;17.20;32.50;99011.66;5030754;28;20029;-61
2021/09/14 09:49:03;;;;;;;8.30;0.80;;;;;;;17.54;32.27;99021.03;5029054;28;20087;-61
2021/09/14 09:51:29;;;;;;;4.97;0.75;;;;;;;17.68;32.51;99026.63;5029984;28;20034;-62
2021/09/14 09:53:55;;;;;;;1.88;0.80;;;;;;;17.58;32.71;99029.63;5029557;28;20034;-60
2021/09/14 09:56:22;;;;;;;2.60;0.63;;;;;;;17.52;32.87;99033.91;5029037;28;20025;-60
2021/09/14 09:58:48;;;;;;;2.13;0.65;;;;;;;17.18;33.64;99038.06;5030791;28;20071;-61
2021/09/14 10:01:20;;;;;;;4.78;0.80;;;;;;;17.01;34.06;99021.16;5031135;28;20120;-62
2021/09/14 10:03:54;;;;;;;3.13;0.85;;;;;;;17.10;33.78;99024.59;5030834;28;20033;-60
2021/09/14 10:06:20;;;;;;;0.77;0.73;;;;;;;17.05;33.04;99036.81;5030078;28;20025;-62
2021/09/14 10:08:54;;;;;;;3.28;0.73;;;;;;;17.15;32.85;99041.13;5030567;28;20033;-60
2021/09/14 10:11:25;;;;;;;2.20;0.55;;;;;;;17.11;33.11;99042.50;5030823;28;20195;-61
2021/09/14 10:14:01;;;;;;;4.93;0.80;;;;;;;17.05;32.62;99049.50;5034276;28;20075;-62
2021/09/14 10:16:26;;;;;;;2.28;0.73;;;;;;;17.14;32.69;99042.16;5034098;28;20043;-61
2021/09/14 10:18:52;;;;;;;2.25;0.60;;;;;;;17.25;33.17;99044.38;5033967;28;20040;-62
2021/09/14 10:21:19;;;;;;;5.82;0.75;;;;;;;17.36;32.97;99052.03;5034549;28;20032;-60
2021/09/14 10:23:54;;;;;;;4.97;0.70;;;;;;;17.70;33.08;99057.03;5034264;28;20029;-62
2021/09/14 10:26:32;;;;;;;4.03;0.90;;;;;;;17.92;32.05;99047.94;5032947;28;20041;-61
2021/09/14 10:28:57;;;;;;;3.95;0.65;;;;;;;17.49;31.63;99031.59;5033722;28;20187;-62
2021/09/14 10:31:26;;;;;;;3.38;0.65;;;;;;;17.45;31.91;99057.34;5043909;28;20100;-63
2021/09/14 10:34:02;;;;;;;2.50;0.73;;;;;;;17.30;32.89;99047.38;5052202;28;20401;-62
2021/09/14 10:36:28;;;;;;;4.68;0.70;;;;;;;17.00;32.70;99058.16;5053556;28;20354;-62
2021/09/14 10:38:53;;;;;;;4.15;1.00;;;;;;;16.91;33.20;99059.25;5042804;28;20029;-63
2021/09/14 10:41:19;;;;;;;3.72;0.47;;;;;;;16.86;32.73;99051.69;5033908;28;20483;-61
2021/09/14 10:43:55;;;;;;;1.15;0.47;;;;;;;16.89;33.05;99059.44;5046431;28;20098;-60
2021/09/14 10:46:23;;;;;;;3.72;0.60;;;;;;;16.50;33.10;99036.13;5053237;28;20056;-61
2021/09/14 10:48:51;;;;;;;4.18;0.90;;;;;;;16.58;33.77;99052.28;5054058;28;20083;-61
2021/09/14 10:51:18;;;;;;;2.08;0.50;;;;;;;16.58;34.41;99054.13;5054142;28;20025;-60
2021/09/14 10:54:00;;;;;;;6.30;0.82;;;;;;;16.87;34.38;99055.22;5053498;28;20033;-61
2021/09/14 10:56:28;;;;;;;4.32;0.70;;;;;;;16.69;34.45;99032.09;5053356;28;20032;-60
2021/09/14 10:58:54;;;;;;;3.17;0.88;;;;;;;16.97;34.35;99047.69;5053803;28;20087;-62
2021/09/14 11:01:24;;;;;;;4.30;0.70;;;;;;;17.09;32.88;99056.22;5053898;28;20039;-61
2021/09/14 11:04:01;;;;;;;2.38;0.80;;;;;;;17.40;32.55;99044.38;5053213;28;20036;-60
2021/09/14 11:06:30;;;;;;;2.58;1.00;;;;;;;17.29;32.08;99056.50;5053763;28;20041;-61
2021/09/14 11:08:57;;;;;;;3.85;0.68;;;;;;;16.97;31.93;99058.50;5053062;28;20032;-60
2021/09/14 11:11:22;;;;;;;1.33;0.63;;;;;;;16.61;32.27;99042.97;5051518;28;20039;-61
2021/09/14 11:13:48;;;;;;;2.78;0.50;;;;;;;16.35;33.68;99047.75;5043071;28;20049;-61
2021/09/14 11:16:16;;;;;;;1.83;0.60;;;;;;;16.29;33.84;99061.97;5033316;28;20040;-60
2021/09/14 11:18:42;;;;;;;3.15;0.60;;;;;;;16.30;33.78;99022.28;5032170;28;20049;-61
2021/09/14 11:21:10;;;;;;;2.60;0.60;;;;;;;16.40;33.07;99044.50;5031199;28;20117;-61
2021/09/14 11:23:37;;;;;;;3.67;0.60;;;;;;;16.23;33.34;99041.06;5032683;28;20117;-62
2021/09/14 11:26:05;;;;;;;2.70;0.55;;;;;;;16.10;32.33;99033.56;5032967;28;20037;-60
2021/09/14 11:28:31;;;;;;;3.70;0.68;;;;;;;15.88;32.52;99027.97;5033325;28;20040;-62
2021/09/14 11:31:02;;;;;;;4.88;0.70;;;;;;;15.75;32.83;99030.38;5032702;28;20112;-61
2021/09/14 11:33:29;;;;;;;4.43;0.85;;;;;;;15.49;33.95;99035.06;5032818;28;20033;-60
2021/09/14 11:35:58;;;;;;;2.40;0.70;;;;;;;15.38;34.89;99040.00;5032811;28;20124;-61
2021/09/14 11:38:24;;;;;;;4.50;0.68;;;;;;;15.34;35.33;99034.94;5033123;28;20037;-61
2021/09/14 11:40:52;;;;;;;3.15;0.70;;;;;;;15.40;35.75;99027.16;5032853;28;20141;-61
2021/09/14 11:43:23;;;;;;;4.20;1.05;;;;;;;15.48;36.02;99025.28;5032603;28;20496;-61
2021/09/14 11:45:50;;;;;;;4.20;0.60;;;;;;;15.60;36.07;99035.69;5031789;28;20037;-60
2021/09/14 11:48:27;;;;;;;1.08;0.60;;;;;;;15.72;35.38;99022.66;5032970;28;20237;-60
2021/09/14 11:51:07;;;;;;;2.28;0.60;;;;;;;15.71;35.64;99026.38;5045335;28;20056;-60
2021/09/14 11:53:33;;;;;;;2.20;0.60;;;;;;;15.61;35.60;99026.59;5051918;28;20064;-61
2021/09/14 11:56:00;;;;;;;1.80;1.00;;;;;;;15.62;35.73;99015.59;5052460;28;20151;-60
2021/09/14 11:58:31;;;;;;;2.28;0.60;;;;;;;15.71;35.93;99016.41;5052134;28;20667;-60
2021/09/14 12:01:06;;;;;;;1.50;0.75;;;;;;;15.63;35.93;99009.19;5052103;28;20035;-61
2021/09/14 12:03:52;;;;;;;2.20;0.80;;;;;;;15.62;36.09;99007.50;5052282;28;20500;-62
2021/09/14 12:06:25;;;;;;;2.92;0.68;;;;;;;15.52;36.00;99000.63;5051615;28;20362;-60
2021/09/14 12:08:51;;;;;;;4.88;0.88;;;;;;;15.38;35.63;99004.94;5051068;28;20108;-60
2021/09/14 12:11:28;;;;;;;1.08;0.50;;;;;;;15.51;35.78;99010.59;5051704;28;20141;-59
2021/09/14 12:13:58;;;;;;;5.03;0.70;;;;;;;15.26;35.77;98953.22;5050844;28;20075;-60
2021/09/14 12:16:27;;;;;;;2.05;0.60;;;;;;;15.83;34.74;99014.13;5051656;28;20044;-60
2021/09/14 12:18:54;;;;;;;3.03;0.70;;;;;;;15.97;34.23;99003.63;5051109;28;20048;-61
2021/09/14 12:21:19;;;;;;;5.38;0.80;;;;;;;16.12;33.51;98999.13;5050707;28;20033;-64
2021/09/14 12:23:45;;;;;;;2.80;0.52;;;;;;;16.13;33.48;99017.00;5050831;28;20127;-61
2021/09/14 12:26:19;;;;;;;6.10;0.90;;;;;;;16.21;33.99;99008.00;5050378;28;20029;-63
2021/09/14 12:28:44;;;;;;;2.13;0.57;;;;;;;16.02;34.06;99025.53;5051162;28;20481;-61